sensor_id;sensor_type;location;lat;lon;timestamp;temperature;humidity
11772;DHT22;12556;55.748;13.194;2022-08-01T00:02:19;18.40;99.90
11772;DHT22;12556;55.748;13.194;2022-08-01T00:04:47;18.40;99.90
11772;DHT22;12556;55.748;13.194;2022-08-01T00:07:14;18.40;99.90
11772;DHT22;12556;55.748;13.194;2022-08-01T00:09:41;18.40;99.90
11772;DHT22;12556;55.748;13.194;2022-08-01T00:12:09;18.40;99.90
11772;DHT22;12556;55.748;13.194;2022-08-01T00:14:36;18.40;99.90
11772;DHT22;12556;55.748;13.194;2022-08-01T00:17:03;18.40;99.90
11772;DHT22;12556;55.748;13.194;2022-08-01T00:19:31;18.30;99.90
11772;DHT22;12556;55.748;13.194;2022-08-01T00:21:59;18.30;99.90
11772;DHT22;12556;55.748;13.194;2022-08-01T00:24:27;18.20;99.90
11772;DHT22;12556;55.748;13.194;2022-08-01T00:26:54;18.20;99.90
11772;DHT22;12556;55.748;13.194;2022-08-01T00:29:21;18.20;99.90
11772;DHT22;12556;55.748;13.194;2022-08-01T00:31:48;18.10;99.90
11772;DHT22;12556;55.748;13.194;2022-08-01T00:34:15;18.10;99.90
11772;DHT22;12556;55.748;13.194;2022-08-01T00:36:41;18.10;99.90
11772;DHT22;12556;55.748;13.194;2022-08-01T00:39:10;18.10;99.90
11772;DHT22;12556;55.748;13.194;2022-08-01T00:41:37;18.00;99.90
11772;DHT22;12556;55.748;13.194;2022-08-01T00:44:04;18.00;99.90
11772;DHT22;12556;55.748;13.194;2022-08-01T00:46:32;18.00;99.90
11772;DHT22;12556;55.748;13.194;2022-08-01T00:49:02;17.90;99.90
11772;DHT22;12556;55.748;13.194;2022-08-01T00:51:29;17.90;99.90
11772;DHT22;12556;55.748;13.194;2022-08-01T00:53:57;17.90;99.90
11772;DHT22;12556;55.748;13.194;2022-08-01T00:56:26;17.90;99.90
11772;DHT22;12556;55.748;13.194;2022-08-01T00:58:54;17.90;99.90
11772;DHT22;12556;55.748;13.194;2022-08-01T01:01:21;17.90;99.90
11772;DHT22;12556;55.748;13.194;2022-08-01T01:03:48;17.80;99.90
11772;DHT22;12556;55.748;13.194;2022-08-01T01:06:26;17.80;99.90
11772;DHT22;12556;55.748;13.194;2022-08-01T01:09:19;17.80;99.90
11772;DHT22;12556;55.748;13.194;2022-08-01T01:12:06;17.80;99.90
11772;DHT22;12556;55.748;13.194;2022-08-01T01:14:43;17.80;99.90
11772;DHT22;12556;55.748;13.194;2022-08-01T01:17:13;17.70;99.90
11772;DHT22;12556;55.748;13.194;2022-08-01T01:19:45;17.70;99.90
11772;DHT22;12556;55.748;13.194;2022-08-01T01:22:25;17.70;99.90
11772;DHT22;12556;55.748;13.194;2022-08-01T01:25:07;17.70;99.90
11772;DHT22;12556;55.748;13.194;2022-08-01T01:27:42;17.70;99.90
11772;DHT22;12556;55.748;13.194;2022-08-01T01:30:13;17.70;99.90
11772;DHT22;12556;55.748;13.194;2022-08-01T01:32:43;17.70;99.90
11772;DHT22;12556;55.748;13.194;2022-08-01T01:35:14;17.70;99.90
11772;DHT22;12556;55.748;13.194;2022-08-01T01:37:43;17.70;99.90
11772;DHT22;12556;55.748;13.194;2022-08-01T01:40:12;17.70;99.90
11772;DHT22;12556;55.748;13.194;2022-08-01T01:42:41;17.70;99.90
11772;DHT22;12556;55.748;13.194;2022-08-01T01:45:09;17.70;99.90
11772;DHT22;12556;55.748;13.194;2022-08-01T01:47:38;17.70;99.90
11772;DHT22;12556;55.748;13.194;2022-08-01T01:50:08;17.60;99.90
11772;DHT22;12556;55.748;13.194;2022-08-01T01:52:39;17.60;99.90
11772;DHT22;12556;55.748;13.194;2022-08-01T01:55:08;17.60;99.90
11772;DHT22;12556;55.748;13.194;2022-08-01T01:57:38;17.60;99.90
11772;DHT22;12556;55.748;13.194;2022-08-01T02:00:06;17.70;99.90
11772;DHT22;12556;55.748;13.194;2022-08-01T02:02:34;17.60;99.90
11772;DHT22;12556;55.748;13.194;2022-08-01T02:05:05;17.60;99.90
11772;DHT22;12556;55.748;13.194;2022-08-01T02:07:32;17.70;99.90
11772;DHT22;12556;55.748;13.194;2022-08-01T02:10:02;17.70;99.90
11772;DHT22;12556;55.748;13.194;2022-08-01T02:12:33;17.70;99.90
11772;DHT22;12556;55.748;13.194;2022-08-01T02:15:02;17.70;99.90
11772;DHT22;12556;55.748;13.194;2022-08-01T02:17:31;17.70;99.90
11772;DHT22;12556;55.748;13.194;2022-08-01T02:19:58;17.70;99.90
11772;DHT22;12556;55.748;13.194;2022-08-01T02:22:31;17.70;99.90
11772;DHT22;12556;55.748;13.194;2022-08-01T02:25:02;17.70;99.90
11772;DHT22;12556;55.748;13.194;2022-08-01T02:27:34;17.70;99.90
11772;DHT22;12556;55.748;13.194;2022-08-01T02:30:06;17.70;99.90
11772;DHT22;12556;55.748;13.194;2022-08-01T02:32:37;17.60;99.90
11772;DHT22;12556;55.748;13.194;2022-08-01T02:35:08;17.60;99.90
11772;DHT22;12556;55.748;13.194;2022-08-01T02:37:39;17.60;99.90
11772;DHT22;12556;55.748;13.194;2022-08-01T02:40:08;17.70;99.90
11772;DHT22;12556;55.748;13.194;2022-08-01T02:42:37;17.60;99.90
11772;DHT22;12556;55.748;13.194;2022-08-01T02:45:06;17.60;99.90
11772;DHT22;12556;55.748;13.194;2022-08-01T02:47:36;17.70;99.90
11772;DHT22;12556;55.748;13.194;2022-08-01T02:50:05;17.60;99.90
11772;DHT22;12556;55.748;13.194;2022-08-01T02:52:34;17.60;99.90
11772;DHT22;12556;55.748;13.194;2022-08-01T02:55:05;17.60;99.90
11772;DHT22;12556;55.748;13.194;2022-08-01T02:57:34;17.60;99.90
11772;DHT22;12556;55.748;13.194;2022-08-01T03:00:04;17.60;99.90
11772;DHT22;12556;55.748;13.194;2022-08-01T03:02:32;17.60;99.90
11772;DHT22;12556;55.748;13.194;2022-08-01T03:05:01;17.60;99.90
11772;DHT22;12556;55.748;13.194;2022-08-01T03:07:29;17.50;99.90
11772;DHT22;12556;55.748;13.194;2022-08-01T03:09:57;17.50;99.90
11772;DHT22;12556;55.748;13.194;2022-08-01T03:12:27;17.50;99.90
11772;DHT22;12556;55.748;13.194;2022-08-01T03:14:58;17.50;99.90
11772;DHT22;12556;55.748;13.194;2022-08-01T03:17:27;17.40;99.90
11772;DHT22;12556;55.748;13.194;2022-08-01T03:19:56;17.50;99.90
11772;DHT22;12556;55.748;13.194;2022-08-01T03:22:26;17.50;99.90
11772;DHT22;12556;55.748;13.194;2022-08-01T03:24:56;17.50;99.90
11772;DHT22;12556;55.748;13.194;2022-08-01T03:27:26;17.50;99.90
11772;DHT22;12556;55.748;13.194;2022-08-01T03:29:55;17.50;99.90
11772;DHT22;12556;55.748;13.194;2022-08-01T03:32:23;17.50;99.90
11772;DHT22;12556;55.748;13.194;2022-08-01T03:34:51;17.50;99.90
11772;DHT22;12556;55.748;13.194;2022-08-01T03:37:23;17.50;99.90
11772;DHT22;12556;55.748;13.194;2022-08-01T03:39:55;17.50;99.90
11772;DHT22;12556;55.748;13.194;2022-08-01T03:42:37;17.60;99.90
11772;DHT22;12556;55.748;13.194;2022-08-01T03:45:08;17.50;99.90
11772;DHT22;12556;55.748;13.194;2022-08-01T03:47:36;17.60;99.90
11772;DHT22;12556;55.748;13.194;2022-08-01T03:50:06;17.60;99.90
11772;DHT22;12556;55.748;13.194;2022-08-01T03:52:35;17.60;99.90
11772;DHT22;12556;55.748;13.194;2022-08-01T03:55:06;17.60;99.90
11772;DHT22;12556;55.748;13.194;2022-08-01T03:57:36;17.60;99.90
11772;DHT22;12556;55.748;13.194;2022-08-01T04:00:05;17.70;99.90
11772;DHT22;12556;55.748;13.194;2022-08-01T04:02:34;17.60;99.90
11772;DHT22;12556;55.748;13.194;2022-08-01T04:05:02;17.70;99.90
11772;DHT22;12556;55.748;13.194;2022-08-01T04:07:31;17.70;99.90
11772;DHT22;12556;55.748;13.194;2022-08-01T04:09:58;17.80;99.90
11772;DHT22;12556;55.748;13.194;2022-08-01T04:12:25;17.80;99.90
11772;DHT22;12556;55.748;13.194;2022-08-01T04:14:54;17.90;99.90
11772;DHT22;12556;55.748;13.194;2022-08-01T04:17:20;17.90;99.90
11772;DHT22;12556;55.748;13.194;2022-08-01T04:19:47;18.00;99.90
11772;DHT22;12556;55.748;13.194;2022-08-01T04:22:15;18.00;99.90
11772;DHT22;12556;55.748;13.194;2022-08-01T04:24:46;18.10;99.90
11772;DHT22;12556;55.748;13.194;2022-08-01T04:27:30;18.10;99.90
11772;DHT22;12556;55.748;13.194;2022-08-01T04:30:00;18.20;99.90
11772;DHT22;12556;55.748;13.194;2022-08-01T04:32:29;18.20;99.90
11772;DHT22;12556;55.748;13.194;2022-08-01T04:34:58;18.30;99.90
11772;DHT22;12556;55.748;13.194;2022-08-01T04:37:26;18.30;99.90
11772;DHT22;12556;55.748;13.194;2022-08-01T04:39:55;18.30;99.90
11772;DHT22;12556;55.748;13.194;2022-08-01T04:42:23;18.40;99.90
11772;DHT22;12556;55.748;13.194;2022-08-01T04:44:50;18.40;99.90
11772;DHT22;12556;55.748;13.194;2022-08-01T04:47:20;18.40;99.90
11772;DHT22;12556;55.748;13.194;2022-08-01T04:49:47;18.50;99.90
11772;DHT22;12556;55.748;13.194;2022-08-01T04:52:14;18.50;99.90
11772;DHT22;12556;55.748;13.194;2022-08-01T04:54:43;18.60;99.90
11772;DHT22;12556;55.748;13.194;2022-08-01T04:57:12;18.60;99.90
11772;DHT22;12556;55.748;13.194;2022-08-01T04:59:42;18.60;99.90
11772;DHT22;12556;55.748;13.194;2022-08-01T05:02:11;18.60;99.90
11772;DHT22;12556;55.748;13.194;2022-08-01T05:04:40;18.60;99.90
11772;DHT22;12556;55.748;13.194;2022-08-01T05:07:08;18.60;99.90
11772;DHT22;12556;55.748;13.194;2022-08-01T05:09:36;18.70;99.90
11772;DHT22;12556;55.748;13.194;2022-08-01T05:12:04;18.70;99.90
11772;DHT22;12556;55.748;13.194;2022-08-01T05:14:32;18.70;99.90
11772;DHT22;12556;55.748;13.194;2022-08-01T05:17:00;18.70;99.90
11772;DHT22;12556;55.748;13.194;2022-08-01T05:19:28;18.70;99.90
11772;DHT22;12556;55.748;13.194;2022-08-01T05:21:57;18.70;99.90
11772;DHT22;12556;55.748;13.194;2022-08-01T05:24:24;18.70;99.90
11772;DHT22;12556;55.748;13.194;2022-08-01T05:26:51;18.70;99.90
11772;DHT22;12556;55.748;13.194;2022-08-01T05:29:17;18.70;99.90
11772;DHT22;12556;55.748;13.194;2022-08-01T05:31:44;18.70;99.90
11772;DHT22;12556;55.748;13.194;2022-08-01T05:34:11;18.70;99.90
11772;DHT22;12556;55.748;13.194;2022-08-01T05:36:38;18.70;99.90
11772;DHT22;12556;55.748;13.194;2022-08-01T05:39:06;18.70;99.90
11772;DHT22;12556;55.748;13.194;2022-08-01T05:41:35;18.80;99.90
11772;DHT22;12556;55.748;13.194;2022-08-01T05:44:02;18.80;99.90
11772;DHT22;12556;55.748;13.194;2022-08-01T05:46:29;18.80;99.90
11772;DHT22;12556;55.748;13.194;2022-08-01T05:48:57;18.80;99.90
11772;DHT22;12556;55.748;13.194;2022-08-01T05:51:24;18.80;99.90
11772;DHT22;12556;55.748;13.194;2022-08-01T05:53:52;18.80;99.90
11772;DHT22;12556;55.748;13.194;2022-08-01T05:56:20;18.80;99.90
11772;DHT22;12556;55.748;13.194;2022-08-01T05:58:48;18.80;99.90
11772;DHT22;12556;55.748;13.194;2022-08-01T06:01:15;19.10;99.90
11772;DHT22;12556;55.748;13.194;2022-08-01T06:03:42;18.80;99.90
11772;DHT22;12556;55.748;13.194;2022-08-01T06:06:09;18.80;99.90
11772;DHT22;12556;55.748;13.194;2022-08-01T06:08:36;18.80;99.90
11772;DHT22;12556;55.748;13.194;2022-08-01T06:11:03;18.80;99.90
11772;DHT22;12556;55.748;13.194;2022-08-01T06:13:31;18.80;99.90
11772;DHT22;12556;55.748;13.194;2022-08-01T06:15:58;18.80;99.90
11772;DHT22;12556;55.748;13.194;2022-08-01T06:18:25;18.80;99.90
11772;DHT22;12556;55.748;13.194;2022-08-01T06:20:52;18.70;99.90
11772;DHT22;12556;55.748;13.194;2022-08-01T06:23:20;18.70;99.90
11772;DHT22;12556;55.748;13.194;2022-08-01T06:25:47;18.70;99.90
11772;DHT22;12556;55.748;13.194;2022-08-01T06:28:14;18.70;99.90
11772;DHT22;12556;55.748;13.194;2022-08-01T06:30:42;18.60;99.90
11772;DHT22;12556;55.748;13.194;2022-08-01T06:33:09;18.60;99.90
11772;DHT22;12556;55.748;13.194;2022-08-01T06:35:37;18.70;99.90
11772;DHT22;12556;55.748;13.194;2022-08-01T06:38:04;18.70;99.90
11772;DHT22;12556;55.748;13.194;2022-08-01T06:40:31;18.70;99.90
11772;DHT22;12556;55.748;13.194;2022-08-01T06:42:58;18.70;99.90
11772;DHT22;12556;55.748;13.194;2022-08-01T06:45:25;18.70;99.90
11772;DHT22;12556;55.748;13.194;2022-08-01T06:47:54;18.80;99.90
11772;DHT22;12556;55.748;13.194;2022-08-01T06:50:21;18.90;99.90
11772;DHT22;12556;55.748;13.194;2022-08-01T06:52:47;18.90;99.90
11772;DHT22;12556;55.748;13.194;2022-08-01T06:55:15;19.00;99.90
11772;DHT22;12556;55.748;13.194;2022-08-01T06:57:46;19.10;99.90
11772;DHT22;12556;55.748;13.194;2022-08-01T07:00:14;19.20;99.90
11772;DHT22;12556;55.748;13.194;2022-08-01T07:02:44;19.30;99.90
11772;DHT22;12556;55.748;13.194;2022-08-01T07:05:13;19.40;99.90
11772;DHT22;12556;55.748;13.194;2022-08-01T07:07:40;19.40;99.90
11772;DHT22;12556;55.748;13.194;2022-08-01T07:10:08;19.50;99.90
11772;DHT22;12556;55.748;13.194;2022-08-01T07:12:35;19.60;99.90
11772;DHT22;12556;55.748;13.194;2022-08-01T07:15:04;19.70;99.90
11772;DHT22;12556;55.748;13.194;2022-08-01T07:17:31;19.70;99.90
11772;DHT22;12556;55.748;13.194;2022-08-01T07:19:59;19.80;99.90
11772;DHT22;12556;55.748;13.194;2022-08-01T07:22:27;19.90;99.90
11772;DHT22;12556;55.748;13.194;2022-08-01T07:24:54;20.00;99.90
11772;DHT22;12556;55.748;13.194;2022-08-01T07:27:21;20.00;99.90
11772;DHT22;12556;55.748;13.194;2022-08-01T07:29:48;20.00;99.90
11772;DHT22;12556;55.748;13.194;2022-08-01T07:32:15;20.10;99.90
11772;DHT22;12556;55.748;13.194;2022-08-01T07:34:42;20.10;99.90
11772;DHT22;12556;55.748;13.194;2022-08-01T07:37:08;20.20;99.90
11772;DHT22;12556;55.748;13.194;2022-08-01T07:39:37;20.30;99.90
11772;DHT22;12556;55.748;13.194;2022-08-01T07:42:04;20.30;99.90
11772;DHT22;12556;55.748;13.194;2022-08-01T07:44:31;20.30;99.90
11772;DHT22;12556;55.748;13.194;2022-08-01T07:46:58;20.40;99.90
11772;DHT22;12556;55.748;13.194;2022-08-01T07:49:25;20.40;99.90
11772;DHT22;12556;55.748;13.194;2022-08-01T07:51:52;20.40;99.90
11772;DHT22;12556;55.748;13.194;2022-08-01T07:54:19;20.50;99.90
11772;DHT22;12556;55.748;13.194;2022-08-01T07:56:50;20.50;99.90
11772;DHT22;12556;55.748;13.194;2022-08-01T07:59:17;20.50;99.90
11772;DHT22;12556;55.748;13.194;2022-08-01T08:01:48;20.60;99.90
11772;DHT22;12556;55.748;13.194;2022-08-01T08:04:15;20.60;99.90
11772;DHT22;12556;55.748;13.194;2022-08-01T08:06:42;20.70;99.90
11772;DHT22;12556;55.748;13.194;2022-08-01T08:09:10;20.70;99.90
11772;DHT22;12556;55.748;13.194;2022-08-01T08:11:37;20.80;99.90
11772;DHT22;12556;55.748;13.194;2022-08-01T08:14:05;20.70;99.90
11772;DHT22;12556;55.748;13.194;2022-08-01T08:16:32;20.80;99.90
11772;DHT22;12556;55.748;13.194;2022-08-01T08:18:59;20.70;99.90
11772;DHT22;12556;55.748;13.194;2022-08-01T08:21:26;20.70;99.90
11772;DHT22;12556;55.748;13.194;2022-08-01T08:23:54;20.70;99.90
11772;DHT22;12556;55.748;13.194;2022-08-01T08:26:38;20.70;99.90
11772;DHT22;12556;55.748;13.194;2022-08-01T08:29:06;20.70;99.90
11772;DHT22;12556;55.748;13.194;2022-08-01T08:31:33;20.70;99.90
11772;DHT22;12556;55.748;13.194;2022-08-01T08:34:00;20.80;99.90
11772;DHT22;12556;55.748;13.194;2022-08-01T08:36:27;20.70;99.90
11772;DHT22;12556;55.748;13.194;2022-08-01T08:38:56;20.70;99.90
11772;DHT22;12556;55.748;13.194;2022-08-01T08:41:23;20.70;99.90
11772;DHT22;12556;55.748;13.194;2022-08-01T08:43:50;20.70;99.90
11772;DHT22;12556;55.748;13.194;2022-08-01T08:46:19;20.70;99.90
11772;DHT22;12556;55.748;13.194;2022-08-01T08:48:46;20.70;99.90
11772;DHT22;12556;55.748;13.194;2022-08-01T08:51:16;20.70;99.90
11772;DHT22;12556;55.748;13.194;2022-08-01T08:53:44;20.70;99.90
11772;DHT22;12556;55.748;13.194;2022-08-01T08:56:13;20.70;99.90
11772;DHT22;12556;55.748;13.194;2022-08-01T08:58:41;20.80;99.90
11772;DHT22;12556;55.748;13.194;2022-08-01T09:01:08;20.70;99.90
11772;DHT22;12556;55.748;13.194;2022-08-01T09:03:37;20.70;99.90
11772;DHT22;12556;55.748;13.194;2022-08-01T09:06:04;20.60;99.90
11772;DHT22;12556;55.748;13.194;2022-08-01T09:08:32;20.60;99.90
11772;DHT22;12556;55.748;13.194;2022-08-01T09:10:59;20.50;99.90
11772;DHT22;12556;55.748;13.194;2022-08-01T09:13:26;20.50;99.90
11772;DHT22;12556;55.748;13.194;2022-08-01T09:15:55;20.40;99.90
11772;DHT22;12556;55.748;13.194;2022-08-01T09:18:29;20.40;99.90
11772;DHT22;12556;55.748;13.194;2022-08-01T09:21:16;20.30;99.90
11772;DHT22;12556;55.748;13.194;2022-08-01T09:23:45;20.30;99.90
11772;DHT22;12556;55.748;13.194;2022-08-01T09:26:15;20.10;99.90
11772;DHT22;12556;55.748;13.194;2022-08-01T09:28:42;20.10;99.90
11772;DHT22;12556;55.748;13.194;2022-08-01T09:31:11;20.00;99.90
11772;DHT22;12556;55.748;13.194;2022-08-01T09:33:49;19.90;99.90
11772;DHT22;12556;55.748;13.194;2022-08-01T09:36:18;19.80;99.90
11772;DHT22;12556;55.748;13.194;2022-08-01T09:38:44;19.70;99.90
11772;DHT22;12556;55.748;13.194;2022-08-01T09:41:11;19.60;99.90
11772;DHT22;12556;55.748;13.194;2022-08-01T09:43:38;19.60;99.90
11772;DHT22;12556;55.748;13.194;2022-08-01T09:46:10;19.50;99.90
11772;DHT22;12556;55.748;13.194;2022-08-01T09:48:37;19.50;99.90
11772;DHT22;12556;55.748;13.194;2022-08-01T09:51:06;19.50;99.90
11772;DHT22;12556;55.748;13.194;2022-08-01T09:53:43;19.50;99.90
11772;DHT22;12556;55.748;13.194;2022-08-01T09:56:11;19.50;99.90
11772;DHT22;12556;55.748;13.194;2022-08-01T09:58:50;19.40;99.90
11772;DHT22;12556;55.748;13.194;2022-08-01T10:01:20;19.40;99.90
11772;DHT22;12556;55.748;13.194;2022-08-01T10:03:47;19.40;99.90
11772;DHT22;12556;55.748;13.194;2022-08-01T10:06:29;19.40;99.90
11772;DHT22;12556;55.748;13.194;2022-08-01T10:08:58;19.50;99.90
11772;DHT22;12556;55.748;13.194;2022-08-01T10:11:26;19.50;99.90
11772;DHT22;12556;55.748;13.194;2022-08-01T10:13:53;19.60;99.90
11772;DHT22;12556;55.748;13.194;2022-08-01T10:16:21;19.70;99.90
11772;DHT22;12556;55.748;13.194;2022-08-01T10:18:49;19.70;99.90
11772;DHT22;12556;55.748;13.194;2022-08-01T10:21:16;19.80;99.90
11772;DHT22;12556;55.748;13.194;2022-08-01T10:23:45;19.80;99.90
11772;DHT22;12556;55.748;13.194;2022-08-01T10:26:14;20.00;99.90
11772;DHT22;12556;55.748;13.194;2022-08-01T10:28:44;20.10;99.90
11772;DHT22;12556;55.748;13.194;2022-08-01T10:31:14;20.30;99.90
11772;DHT22;12556;55.748;13.194;2022-08-01T10:33:43;20.40;99.90
11772;DHT22;12556;55.748;13.194;2022-08-01T10:36:10;20.50;99.90
11772;DHT22;12556;55.748;13.194;2022-08-01T10:38:38;20.60;99.90
11772;DHT22;12556;55.748;13.194;2022-08-01T10:41:05;20.70;99.90
11772;DHT22;12556;55.748;13.194;2022-08-01T10:43:33;20.70;99.90
11772;DHT22;12556;55.748;13.194;2022-08-01T10:46:00;20.80;99.90
11772;DHT22;12556;55.748;13.194;2022-08-01T10:48:33;20.90;99.90
11772;DHT22;12556;55.748;13.194;2022-08-01T10:51:04;21.10;99.90
11772;DHT22;12556;55.748;13.194;2022-08-01T10:53:32;21.30;99.90
11772;DHT22;12556;55.748;13.194;2022-08-01T10:56:02;21.40;99.90
11772;DHT22;12556;55.748;13.194;2022-08-01T10:58:30;21.40;99.90
11772;DHT22;12556;55.748;13.194;2022-08-01T11:01:19;21.40;99.90
11772;DHT22;12556;55.748;13.194;2022-08-01T11:03:58;21.40;99.90
11772;DHT22;12556;55.748;13.194;2022-08-01T11:06:38;21.50;99.90
11772;DHT22;12556;55.748;13.194;2022-08-01T11:09:20;21.50;99.90
11772;DHT22;12556;55.748;13.194;2022-08-01T11:12:00;21.50;99.90
11772;DHT22;12556;55.748;13.194;2022-08-01T11:14:31;21.50;99.90
11772;DHT22;12556;55.748;13.194;2022-08-01T11:17:33;21.50;99.90
11772;DHT22;12556;55.748;13.194;2022-08-01T11:20:04;21.50;99.90
11772;DHT22;12556;55.748;13.194;2022-08-01T11:24:58;21.60;99.90
11772;DHT22;12556;55.748;13.194;2022-08-01T11:27:28;21.60;99.90
11772;DHT22;12556;55.748;13.194;2022-08-01T11:30:21;21.60;99.90
11772;DHT22;12556;55.748;13.194;2022-08-01T11:32:51;21.50;99.90
11772;DHT22;12556;55.748;13.194;2022-08-01T11:35:19;21.40;99.90
11772;DHT22;12556;55.748;13.194;2022-08-01T11:37:47;21.30;99.90
11772;DHT22;12556;55.748;13.194;2022-08-01T11:40:25;21.20;99.90
11772;DHT22;12556;55.748;13.194;2022-08-01T11:43:16;21.00;99.90
11772;DHT22;12556;55.748;13.194;2022-08-01T11:45:49;20.80;99.90
11772;DHT22;12556;55.748;13.194;2022-08-01T11:48:18;20.70;99.90
11772;DHT22;12556;55.748;13.194;2022-08-01T11:50:45;20.50;99.90
11772;DHT22;12556;55.748;13.194;2022-08-01T11:53:12;20.40;99.90
11772;DHT22;12556;55.748;13.194;2022-08-01T11:55:46;20.40;99.90
11772;DHT22;12556;55.748;13.194;2022-08-01T11:58:14;20.30;99.90
11772;DHT22;12556;55.748;13.194;2022-08-01T12:00:50;20.20;99.90
11772;DHT22;12556;55.748;13.194;2022-08-01T12:03:23;20.10;99.90
11772;DHT22;12556;55.748;13.194;2022-08-01T12:05:50;19.80;99.90
11772;DHT22;12556;55.748;13.194;2022-08-01T12:08:24;19.40;99.90
11772;DHT22;12556;55.748;13.194;2022-08-01T12:10:53;19.60;99.90
11772;DHT22;12556;55.748;13.194;2022-08-01T12:13:20;19.60;99.90
11772;DHT22;12556;55.748;13.194;2022-08-01T12:15:48;19.50;99.90
11772;DHT22;12556;55.748;13.194;2022-08-01T12:18:16;19.40;99.90
11772;DHT22;12556;55.748;13.194;2022-08-01T12:20:45;19.40;99.90
11772;DHT22;12556;55.748;13.194;2022-08-01T12:23:13;19.40;99.90
11772;DHT22;12556;55.748;13.194;2022-08-01T12:25:41;19.40;99.90
11772;DHT22;12556;55.748;13.194;2022-08-01T12:28:11;19.40;99.90
11772;DHT22;12556;55.748;13.194;2022-08-01T12:30:40;19.40;99.90
11772;DHT22;12556;55.748;13.194;2022-08-01T12:33:08;19.40;99.90
11772;DHT22;12556;55.748;13.194;2022-08-01T12:35:37;19.40;99.90
11772;DHT22;12556;55.748;13.194;2022-08-01T12:38:06;19.50;99.90
11772;DHT22;12556;55.748;13.194;2022-08-01T12:40:34;19.50;99.90
11772;DHT22;12556;55.748;13.194;2022-08-01T12:43:03;19.60;99.90
11772;DHT22;12556;55.748;13.194;2022-08-01T12:45:34;19.90;99.90
11772;DHT22;12556;55.748;13.194;2022-08-01T12:48:05;20.00;99.90
11772;DHT22;12556;55.748;13.194;2022-08-01T12:50:34;20.20;99.90
11772;DHT22;12556;55.748;13.194;2022-08-01T12:53:03;20.60;99.90
11772;DHT22;12556;55.748;13.194;2022-08-01T12:55:30;21.00;99.90
11772;DHT22;12556;55.748;13.194;2022-08-01T12:58:05;21.40;99.90
11772;DHT22;12556;55.748;13.194;2022-08-01T13:00:34;21.80;99.90
11772;DHT22;12556;55.748;13.194;2022-08-01T13:03:04;22.20;99.90
11772;DHT22;12556;55.748;13.194;2022-08-01T13:05:43;22.60;99.90
11772;DHT22;12556;55.748;13.194;2022-08-01T13:08:11;23.20;99.90
11772;DHT22;12556;55.748;13.194;2022-08-01T13:10:38;23.60;99.90
11772;DHT22;12556;55.748;13.194;2022-08-01T13:13:06;24.00;99.90
11772;DHT22;12556;55.748;13.194;2022-08-01T13:15:36;24.20;99.50
11772;DHT22;12556;55.748;13.194;2022-08-01T13:18:23;24.40;98.90
11772;DHT22;12556;55.748;13.194;2022-08-01T13:20:50;24.80;98.40
11772;DHT22;12556;55.748;13.194;2022-08-01T13:23:33;24.90;97.50
11772;DHT22;12556;55.748;13.194;2022-08-01T13:26:00;25.00;97.40
11772;DHT22;12556;55.748;13.194;2022-08-01T13:28:27;25.20;97.20
11772;DHT22;12556;55.748;13.194;2022-08-01T13:30:59;25.40;96.80
11772;DHT22;12556;55.748;13.194;2022-08-01T13:33:28;25.70;96.00
11772;DHT22;12556;55.748;13.194;2022-08-01T13:35:56;25.80;95.30
11772;DHT22;12556;55.748;13.194;2022-08-01T13:38:23;26.00;94.80
11772;DHT22;12556;55.748;13.194;2022-08-01T13:41:04;26.30;94.40
11772;DHT22;12556;55.748;13.194;2022-08-01T13:43:31;26.40;93.50
11772;DHT22;12556;55.748;13.194;2022-08-01T13:46:00;26.30;92.80
11772;DHT22;12556;55.748;13.194;2022-08-01T13:48:28;26.20;92.40
11772;DHT22;12556;55.748;13.194;2022-08-01T13:50:55;26.20;92.30
11772;DHT22;12556;55.748;13.194;2022-08-01T13:53:22;26.40;92.00
11772;DHT22;12556;55.748;13.194;2022-08-01T13:55:48;26.40;91.50
11772;DHT22;12556;55.748;13.194;2022-08-01T13:58:15;26.20;90.90
11772;DHT22;12556;55.748;13.194;2022-08-01T14:00:42;26.10;91.00
11772;DHT22;12556;55.748;13.194;2022-08-01T14:03:11;26.20;90.70
11772;DHT22;12556;55.748;13.194;2022-08-01T14:05:38;26.30;90.00
11772;DHT22;12556;55.748;13.194;2022-08-01T14:08:05;26.10;90.30
11772;DHT22;12556;55.748;13.194;2022-08-01T14:10:33;25.80;90.00
11772;DHT22;12556;55.748;13.194;2022-08-01T14:12:59;25.70;90.00
11772;DHT22;12556;55.748;13.194;2022-08-01T14:15:26;25.80;89.80
11772;DHT22;12556;55.748;13.194;2022-08-01T14:17:53;25.80;89.10
11772;DHT22;12556;55.748;13.194;2022-08-01T14:20:22;26.00;89.10
11772;DHT22;12556;55.748;13.194;2022-08-01T14:22:49;26.00;87.30
11772;DHT22;12556;55.748;13.194;2022-08-01T14:25:16;26.10;86.60
11772;DHT22;12556;55.748;13.194;2022-08-01T14:27:43;26.30;86.30
11772;DHT22;12556;55.748;13.194;2022-08-01T14:30:11;26.30;84.40
11772;DHT22;12556;55.748;13.194;2022-08-01T14:32:38;26.10;84.50
11772;DHT22;12556;55.748;13.194;2022-08-01T14:35:06;26.20;83.10
11772;DHT22;12556;55.748;13.194;2022-08-01T14:37:34;26.10;82.10
11772;DHT22;12556;55.748;13.194;2022-08-01T14:40:01;25.90;82.00
11772;DHT22;12556;55.748;13.194;2022-08-01T14:42:31;25.80;80.50
11772;DHT22;12556;55.748;13.194;2022-08-01T14:44:58;25.80;79.70
11772;DHT22;12556;55.748;13.194;2022-08-01T14:47:25;25.70;79.70
11772;DHT22;12556;55.748;13.194;2022-08-01T14:49:52;25.60;79.30
11772;DHT22;12556;55.748;13.194;2022-08-01T14:52:18;25.20;79.40
11772;DHT22;12556;55.748;13.194;2022-08-01T14:54:48;25.20;80.70
11772;DHT22;12556;55.748;13.194;2022-08-01T14:57:15;25.20;80.90
11772;DHT22;12556;55.748;13.194;2022-08-01T14:59:43;25.30;80.00
11772;DHT22;12556;55.748;13.194;2022-08-01T15:02:10;25.30;78.20
11772;DHT22;12556;55.748;13.194;2022-08-01T15:04:38;25.30;78.00
11772;DHT22;12556;55.748;13.194;2022-08-01T15:07:05;25.20;78.50
11772;DHT22;12556;55.748;13.194;2022-08-01T15:09:32;25.10;78.80
11772;DHT22;12556;55.748;13.194;2022-08-01T15:12:01;25.10;77.20
11772;DHT22;12556;55.748;13.194;2022-08-01T15:14:28;25.00;76.30
11772;DHT22;12556;55.748;13.194;2022-08-01T15:17:12;24.80;77.00
11772;DHT22;12556;55.748;13.194;2022-08-01T15:19:39;24.70;77.10
11772;DHT22;12556;55.748;13.194;2022-08-01T15:22:06;24.50;77.10
11772;DHT22;12556;55.748;13.194;2022-08-01T15:24:33;24.30;78.30
11772;DHT22;12556;55.748;13.194;2022-08-01T15:27:01;24.30;79.00
11772;DHT22;12556;55.748;13.194;2022-08-01T15:29:28;24.30;79.60
11772;DHT22;12556;55.748;13.194;2022-08-01T15:31:55;24.30;79.40